sensor_id;sensor_type;location;lat;lon;timestamp;P1;durP1;ratioP1;P2;durP2;ratioP2
22677;SDS011;26259;50.214;18.620;2022-08-21T00:01:09;22.33;;;16.53;;
22677;SDS011;26259;50.214;18.620;2022-08-21T00:03:39;22.03;;;17.63;;
22677;SDS011;26259;50.214;18.620;2022-08-21T00:06:05;18.00;;;14.43;;
22677;SDS011;26259;50.214;18.620;2022-08-21T00:08:31;16.67;;;13.90;;
22677;SDS011;26259;50.214;18.620;2022-08-21T00:10:56;19.23;;;15.57;;
22677;SDS011;26259;50.214;18.620;2022-08-21T00:13:22;16.87;;;13.00;;
22677;SDS011;26259;50.214;18.620;2022-08-21T00:15:48;18.80;;;14.57;;
22677;SDS011;26259;50.214;18.620;2022-08-21T00:18:14;18.70;;;14.40;;
22677;SDS011;26259;50.214;18.620;2022-08-21T00:20:40;18.07;;;13.50;;
22677;SDS011;26259;50.214;18.620;2022-08-21T00:23:07;15.50;;;12.70;;
22677;SDS011;26259;50.214;18.620;2022-08-21T00:25:33;15.60;;;12.03;;
22677;SDS011;26259;50.214;18.620;2022-08-21T00:27:59;15.53;;;11.77;;
22677;SDS011;26259;50.214;18.620;2022-08-21T00:30:26;13.87;;;11.37;;
22677;SDS011;26259;50.214;18.620;2022-08-21T00:32:54;13.83;;;10.73;;
22677;SDS011;26259;50.214;18.620;2022-08-21T00:35:26;11.30;;;9.57;;
22677;SDS011;26259;50.214;18.620;2022-08-21T00:37:55;10.47;;;9.37;;
22677;SDS011;26259;50.214;18.620;2022-08-21T00:41:07;8.50;;;7.57;;
22677;SDS011;26259;50.214;18.620;2022-08-21T00:43:13;9.77;;;7.90;;
22677;SDS011;26259;50.214;18.620;2022-08-21T00:45:43;8.83;;;7.83;;
22677;SDS011;26259;50.214;18.620;2022-08-21T00:48:09;10.73;;;7.70;;
22677;SDS011;26259;50.214;18.620;2022-08-21T00:50:35;9.80;;;8.90;;
22677;SDS011;26259;50.214;18.620;2022-08-21T00:53:07;11.53;;;9.07;;
22677;SDS011;26259;50.214;18.620;2022-08-21T00:55:35;10.83;;;9.77;;
22677;SDS011;26259;50.214;18.620;2022-08-21T01:03:13;11.30;;;9.30;;
22677;SDS011;26259;50.214;18.620;2022-08-21T01:05:42;16.60;;;10.23;;
22677;SDS011;26259;50.214;18.620;2022-08-21T01:08:09;12.40;;;9.70;;
22677;SDS011;26259;50.214;18.620;2022-08-21T01:10:36;13.53;;;9.20;;
22677;SDS011;26259;50.214;18.620;2022-08-21T01:13:02;14.97;;;9.17;;
22677;SDS011;26259;50.214;18.620;2022-08-21T01:15:33;13.13;;;9.03;;
22677;SDS011;26259;50.214;18.620;2022-08-21T01:18:02;14.10;;;9.30;;
22677;SDS011;26259;50.214;18.620;2022-08-21T01:20:29;10.77;;;8.90;;
22677;SDS011;26259;50.214;18.620;2022-08-21T01:22:54;11.13;;;8.70;;
22677;SDS011;26259;50.214;18.620;2022-08-21T01:25:20;9.00;;;8.10;;
22677;SDS011;26259;50.214;18.620;2022-08-21T01:27:46;10.83;;;9.03;;
22677;SDS011;26259;50.214;18.620;2022-08-21T01:30:26;12.90;;;9.47;;
22677;SDS011;26259;50.214;18.620;2022-08-21T01:32:53;15.13;;;8.77;;
22677;SDS011;26259;50.214;18.620;2022-08-21T01:35:20;11.50;;;8.27;;
22677;SDS011;26259;50.214;18.620;2022-08-21T01:37:46;11.17;;;7.93;;
22677;SDS011;26259;50.214;18.620;2022-08-21T01:40:12;12.77;;;8.97;;
22677;SDS011;26259;50.214;18.620;2022-08-21T01:42:40;10.87;;;8.10;;
22677;SDS011;26259;50.214;18.620;2022-08-21T01:45:06;8.67;;;7.83;;
22677;SDS011;26259;50.214;18.620;2022-08-21T01:47:33;12.67;;;8.87;;
22677;SDS011;26259;50.214;18.620;2022-08-21T01:49:58;10.87;;;8.00;;
22677;SDS011;26259;50.214;18.620;2022-08-21T01:52:24;12.40;;;8.27;;
22677;SDS011;26259;50.214;18.620;2022-08-21T01:54:50;11.77;;;8.43;;
22677;SDS011;26259;50.214;18.620;2022-08-21T01:57:16;10.80;;;7.70;;
22677;SDS011;26259;50.214;18.620;2022-08-21T01:59:41;14.07;;;7.80;;
22677;SDS011;26259;50.214;18.620;2022-08-21T02:02:07;10.67;;;7.47;;
22677;SDS011;26259;50.214;18.620;2022-08-21T02:04:33;14.20;;;8.03;;
22677;SDS011;26259;50.214;18.620;2022-08-21T02:06:59;14.73;;;7.33;;
22677;SDS011;26259;50.214;18.620;2022-08-21T02:09:26;9.97;;;7.27;;
22677;SDS011;26259;50.214;18.620;2022-08-21T02:11:51;11.20;;;7.27;;
22677;SDS011;26259;50.214;18.620;2022-08-21T02:16:52;9.30;;;6.60;;
22677;SDS011;26259;50.214;18.620;2022-08-21T02:24:21;7.10;;;5.77;;
22677;SDS011;26259;50.214;18.620;2022-08-21T02:29:22;7.53;;;5.30;;
22677;SDS011;26259;50.214;18.620;2022-08-21T02:40:07;8.20;;;6.07;;
22677;SDS011;26259;50.214;18.620;2022-08-21T02:45:12;6.27;;;5.67;;
22677;SDS011;26259;50.214;18.620;2022-08-21T02:52:50;10.10;;;6.83;;
22677;SDS011;26259;50.214;18.620;2022-08-21T02:55:17;9.37;;;7.17;;
22677;SDS011;26259;50.214;18.620;2022-08-21T03:02:54;10.70;;;6.93;;
22677;SDS011;26259;50.214;18.620;2022-08-21T03:05:21;9.30;;;7.40;;
22677;SDS011;26259;50.214;18.620;2022-08-21T03:10:18;12.20;;;8.00;;
22677;SDS011;26259;50.214;18.620;2022-08-21T03:38:39;14.80;;;8.93;;
22677;SDS011;26259;50.214;18.620;2022-08-21T03:41:05;10.77;;;9.10;;
22677;SDS011;26259;50.214;18.620;2022-08-21T03:43:32;16.10;;;9.73;;
22677;SDS011;26259;50.214;18.620;2022-08-21T03:45:58;12.70;;;10.00;;
22677;SDS011;26259;50.214;18.620;2022-08-21T03:48:26;16.03;;;10.23;;
22677;SDS011;26259;50.214;18.620;2022-08-21T03:50:52;15.20;;;10.13;;
22677;SDS011;26259;50.214;18.620;2022-08-21T03:53:18;13.60;;;9.23;;
22677;SDS011;26259;50.214;18.620;2022-08-21T03:55:45;13.07;;;10.30;;
22677;SDS011;26259;50.214;18.620;2022-08-21T03:58:11;16.37;;;10.70;;
22677;SDS011;26259;50.214;18.620;2022-08-21T04:00:37;11.43;;;9.10;;
22677;SDS011;26259;50.214;18.620;2022-08-21T04:03:02;14.80;;;9.60;;
22677;SDS011;26259;50.214;18.620;2022-08-21T04:05:28;13.90;;;10.23;;
22677;SDS011;26259;50.214;18.620;2022-08-21T04:07:59;15.97;;;11.20;;
22677;SDS011;26259;50.214;18.620;2022-08-21T04:10:27;14.60;;;10.67;;
22677;SDS011;26259;50.214;18.620;2022-08-21T04:12:55;15.00;;;10.17;;
22677;SDS011;26259;50.214;18.620;2022-08-21T04:15:22;15.50;;;10.07;;
22677;SDS011;26259;50.214;18.620;2022-08-21T04:17:49;13.20;;;10.57;;
22677;SDS011;26259;50.214;18.620;2022-08-21T04:20:16;12.13;;;9.00;;
22677;SDS011;26259;50.214;18.620;2022-08-21T04:22:42;14.87;;;10.00;;
22677;SDS011;26259;50.214;18.620;2022-08-21T04:25:09;14.83;;;10.27;;
22677;SDS011;26259;50.214;18.620;2022-08-21T04:27:35;16.93;;;10.63;;
22677;SDS011;26259;50.214;18.620;2022-08-21T04:30:01;14.40;;;9.33;;
22677;SDS011;26259;50.214;18.620;2022-08-21T04:32:27;13.87;;;9.30;;
22677;SDS011;26259;50.214;18.620;2022-08-21T04:35:07;13.37;;;10.83;;
22677;SDS011;26259;50.214;18.620;2022-08-21T04:37:34;16.07;;;9.57;;
22677;SDS011;26259;50.214;18.620;2022-08-21T04:40:00;19.33;;;10.07;;
22677;SDS011;26259;50.214;18.620;2022-08-21T04:42:27;15.43;;;11.03;;
22677;SDS011;26259;50.214;18.620;2022-08-21T04:44:53;11.97;;;9.90;;
22677;SDS011;26259;50.214;18.620;2022-08-21T04:47:20;14.47;;;10.37;;
22677;SDS011;26259;50.214;18.620;2022-08-21T04:49:46;17.07;;;10.23;;
22677;SDS011;26259;50.214;18.620;2022-08-21T04:52:12;12.07;;;10.30;;
22677;SDS011;26259;50.214;18.620;2022-08-21T04:54:41;15.53;;;9.20;;
22677;SDS011;26259;50.214;18.620;2022-08-21T04:57:08;11.17;;;8.93;;
22677;SDS011;26259;50.214;18.620;2022-08-21T04:59:37;13.93;;;8.80;;
22677;SDS011;26259;50.214;18.620;2022-08-21T05:02:06;17.27;;;10.10;;
22677;SDS011;26259;50.214;18.620;2022-08-21T05:04:33;19.43;;;10.30;;
22677;SDS011;26259;50.214;18.620;2022-08-21T05:07:03;11.03;;;9.30;;
22677;SDS011;26259;50.214;18.620;2022-08-21T05:09:32;13.07;;;10.10;;
22677;SDS011;26259;50.214;18.620;2022-08-21T05:11:58;12.30;;;9.03;;
22677;SDS011;26259;50.214;18.620;2022-08-21T05:14:25;13.83;;;9.83;;
22677;SDS011;26259;50.214;18.620;2022-08-21T05:16:52;21.80;;;10.33;;
22677;SDS011;26259;50.214;18.620;2022-08-21T05:19:17;16.67;;;9.70;;
22677;SDS011;26259;50.214;18.620;2022-08-21T05:21:44;15.60;;;10.57;;
22677;SDS011;26259;50.214;18.620;2022-08-21T05:24:10;15.93;;;8.93;;
22677;SDS011;26259;50.214;18.620;2022-08-21T05:26:36;10.47;;;8.43;;
22677;SDS011;26259;50.214;18.620;2022-08-21T05:29:03;10.40;;;8.87;;
22677;SDS011;26259;50.214;18.620;2022-08-21T05:31:28;10.00;;;7.27;;
22677;SDS011;26259;50.214;18.620;2022-08-21T05:33:54;5.63;;;4.60;;
22677;SDS011;26259;50.214;18.620;2022-08-21T05:36:20;3.50;;;3.20;;
22677;SDS011;26259;50.214;18.620;2022-08-21T05:38:45;4.47;;;3.50;;
22677;SDS011;26259;50.214;18.620;2022-08-21T05:41:11;3.27;;;2.77;;
22677;SDS011;26259;50.214;18.620;2022-08-21T05:43:37;3.47;;;2.50;;
22677;SDS011;26259;50.214;18.620;2022-08-21T05:46:03;4.83;;;2.17;;
22677;SDS011;26259;50.214;18.620;2022-08-21T05:48:29;3.37;;;1.50;;
22677;SDS011;26259;50.214;18.620;2022-08-21T05:58:42;2.27;;;1.33;;
22677;SDS011;26259;50.214;18.620;2022-08-21T06:06:18;2.37;;;1.10;;
22677;SDS011;26259;50.214;18.620;2022-08-21T06:08:44;1.40;;;1.30;;
22677;SDS011;26259;50.214;18.620;2022-08-21T06:11:10;1.53;;;1.43;;
22677;SDS011;26259;50.214;18.620;2022-08-21T06:13:36;2.53;;;1.50;;
22677;SDS011;26259;50.214;18.620;2022-08-21T06:16:03;3.70;;;1.70;;
22677;SDS011;26259;50.214;18.620;2022-08-21T06:18:39;3.07;;;1.90;;
22677;SDS011;26259;50.214;18.620;2022-08-21T06:21:06;3.73;;;2.27;;
22677;SDS011;26259;50.214;18.620;2022-08-21T06:23:33;3.73;;;2.00;;
22677;SDS011;26259;50.214;18.620;2022-08-21T06:26:00;3.67;;;2.17;;
22677;SDS011;26259;50.214;18.620;2022-08-21T06:31:09;3.03;;;1.17;;
22677;SDS011;26259;50.214;18.620;2022-08-21T06:33:46;2.37;;;1.23;;
22677;SDS011;26259;50.214;18.620;2022-08-21T06:36:12;3.07;;;1.70;;
22677;SDS011;26259;50.214;18.620;2022-08-21T06:38:37;3.13;;;1.70;;
22677;SDS011;26259;50.214;18.620;2022-08-21T06:41:04;2.17;;;1.20;;
22677;SDS011;26259;50.214;18.620;2022-08-21T06:43:29;2.17;;;1.60;;
22677;SDS011;26259;50.214;18.620;2022-08-21T06:45:55;1.63;;;1.10;;
22677;SDS011;26259;50.214;18.620;2022-08-21T06:50:56;2.43;;;0.80;;
22677;SDS011;26259;50.214;18.620;2022-08-21T06:53:22;2.67;;;1.27;;
22677;SDS011;26259;50.214;18.620;2022-08-21T07:00:59;1.70;;;0.80;;
22677;SDS011;26259;50.214;18.620;2022-08-21T07:03:26;1.00;;;0.90;;
22677;SDS011;26259;50.214;18.620;2022-08-21T07:05:54;1.63;;;0.60;;
22677;SDS011;26259;50.214;18.620;2022-08-21T07:08:21;1.73;;;0.50;;
22677;SDS011;26259;50.214;18.620;2022-08-21T07:10:47;2.63;;;0.70;;
22677;SDS011;26259;50.214;18.620;2022-08-21T07:13:14;1.57;;;0.80;;
22677;SDS011;26259;50.214;18.620;2022-08-21T07:15:40;2.93;;;0.70;;
22677;SDS011;26259;50.214;18.620;2022-08-21T07:18:05;0.90;;;0.37;;
22677;SDS011;26259;50.214;18.620;2022-08-21T07:20:32;0.93;;;0.43;;
22677;SDS011;26259;50.214;18.620;2022-08-21T07:22:59;1.80;;;0.50;;
22677;SDS011;26259;50.214;18.620;2022-08-21T07:25:27;1.63;;;0.50;;
22677;SDS011;26259;50.214;18.620;2022-08-21T07:27:53;1.60;;;0.67;;
22677;SDS011;26259;50.214;18.620;2022-08-21T07:30:19;0.70;;;0.70;;
22677;SDS011;26259;50.214;18.620;2022-08-21T07:32:45;1.03;;;0.40;;
22677;SDS011;26259;50.214;18.620;2022-08-21T07:35:10;1.07;;;0.50;;
22677;SDS011;26259;50.214;18.620;2022-08-21T07:37:36;0.90;;;0.40;;
22677;SDS011;26259;50.214;18.620;2022-08-21T07:40:02;0.50;;;0.40;;
22677;SDS011;26259;50.214;18.620;2022-08-21T07:42:28;2.20;;;1.00;;
22677;SDS011;26259;50.214;18.620;2022-08-21T07:44:55;1.93;;;0.80;;
22677;SDS011;26259;50.214;18.620;2022-08-21T07:47:20;1.13;;;0.87;;
22677;SDS011;26259;50.214;18.620;2022-08-21T07:49:46;4.07;;;1.10;;
22677;SDS011;26259;50.214;18.620;2022-08-21T07:52:11;3.97;;;1.33;;
22677;SDS011;26259;50.214;18.620;2022-08-21T07:54:37;4.13;;;1.67;;
22677;SDS011;26259;50.214;18.620;2022-08-21T07:57:02;3.37;;;1.77;;
22677;SDS011;26259;50.214;18.620;2022-08-21T07:59:28;3.80;;;1.70;;
22677;SDS011;26259;50.214;18.620;2022-08-21T08:01:54;8.17;;;1.87;;
22677;SDS011;26259;50.214;18.620;2022-08-21T08:04:20;3.30;;;1.63;;
22677;SDS011;26259;50.214;18.620;2022-08-21T08:06:46;1.37;;;1.20;;
22677;SDS011;26259;50.214;18.620;2022-08-21T08:09:12;1.40;;;1.30;;
22677;SDS011;26259;50.214;18.620;2022-08-21T08:45:18;4.40;;;3.60;;
22677;SDS011;26259;50.214;18.620;2022-08-21T08:47:49;4.90;;;4.50;;
22677;SDS011;26259;50.214;18.620;2022-08-21T08:58:37;9.97;;;8.90;;
22677;SDS011;26259;50.214;18.620;2022-08-21T09:01:06;12.00;;;9.83;;
22677;SDS011;26259;50.214;18.620;2022-08-21T09:03:40;11.93;;;9.83;;
22677;SDS011;26259;50.214;18.620;2022-08-21T09:06:17;11.73;;;10.50;;
22677;SDS011;26259;50.214;18.620;2022-08-21T09:11:38;13.87;;;10.80;;
22677;SDS011;26259;50.214;18.620;2022-08-21T09:14:20;14.83;;;12.00;;
22677;SDS011;26259;50.214;18.620;2022-08-21T09:22:48;15.43;;;11.93;;
22677;SDS011;26259;50.214;18.620;2022-08-21T09:28:32;14.73;;;12.30;;
22677;SDS011;26259;50.214;18.620;2022-08-21T09:38:51;11.40;;;9.47;;
22677;SDS011;26259;50.214;18.620;2022-08-21T09:41:25;10.60;;;9.17;;
22677;SDS011;26259;50.214;18.620;2022-08-21T09:43:53;11.67;;;9.20;;
22677;SDS011;26259;50.214;18.620;2022-08-21T09:46:23;10.33;;;9.33;;
22677;SDS011;26259;50.214;18.620;2022-08-21T09:48:52;9.00;;;8.10;;
22677;SDS011;26259;50.214;18.620;2022-08-21T09:51:24;8.30;;;7.50;;
22677;SDS011;26259;50.214;18.620;2022-08-21T09:53:53;9.67;;;8.70;;
22677;SDS011;26259;50.214;18.620;2022-08-21T09:56:29;9.50;;;7.97;;
22677;SDS011;26259;50.214;18.620;2022-08-21T09:59:31;8.87;;;7.97;;
22677;SDS011;26259;50.214;18.620;2022-08-21T10:02:01;7.87;;;7.17;;
22677;SDS011;26259;50.214;18.620;2022-08-21T10:11:40;7.60;;;6.90;;
22677;SDS011;26259;50.214;18.620;2022-08-21T10:14:18;10.10;;;8.33;;
22677;SDS011;26259;50.214;18.620;2022-08-21T10:19:38;6.43;;;5.83;;
22677;SDS011;26259;50.214;18.620;2022-08-21T10:49:37;4.73;;;3.93;;
22677;SDS011;26259;50.214;18.620;2022-08-21T11:05:25;5.83;;;2.87;;
22677;SDS011;26259;50.214;18.620;2022-08-21T11:07:53;3.03;;;2.23;;
22677;SDS011;26259;50.214;18.620;2022-08-21T11:10:27;2.20;;;2.10;;
22677;SDS011;26259;50.214;18.620;2022-08-21T11:13:17;2.37;;;2.17;;
22677;SDS011;26259;50.214;18.620;2022-08-21T11:15:56;2.00;;;1.80;;
22677;SDS011;26259;50.214;18.620;2022-08-21T11:19:02;1.60;;;1.50;;
22677;SDS011;26259;50.214;18.620;2022-08-21T11:24:29;1.30;;;1.20;;
22677;SDS011;26259;50.214;18.620;2022-08-21T11:27:25;1.50;;;1.40;;
22677;SDS011;26259;50.214;18.620;2022-08-21T11:30:12;3.03;;;1.70;;
22677;SDS011;26259;50.214;18.620;2022-08-21T11:36:31;1.93;;;1.43;;
22677;SDS011;26259;50.214;18.620;2022-08-21T11:38:48;1.20;;;1.20;;
22677;SDS011;26259;50.214;18.620;2022-08-21T11:41:43;1.80;;;1.30;;
22677;SDS011;26259;50.214;18.620;2022-08-21T11:44:44;1.33;;;1.23;;
22677;SDS011;26259;50.214;18.620;2022-08-21T11:50:20;2.00;;;1.80;;
22677;SDS011;26259;50.214;18.620;2022-08-21T11:52:53;1.90;;;1.80;;
22677;SDS011;26259;50.214;18.620;2022-08-21T11:55:56;1.60;;;1.50;;
22677;SDS011;26259;50.214;18.620;2022-08-21T11:58:25;1.40;;;1.40;;
22677;SDS011;26259;50.214;18.620;2022-08-21T12:04:06;1.47;;;1.37;;
22677;SDS011;26259;50.214;18.620;2022-08-21T12:06:41;1.60;;;1.50;;
22677;SDS011;26259;50.214;18.620;2022-08-21T12:09:08;1.53;;;1.43;;
22677;SDS011;26259;50.214;18.620;2022-08-21T12:12:12;1.63;;;1.53;;
22677;SDS011;26259;50.214;18.620;2022-08-21T12:14:49;2.20;;;1.80;;
22677;SDS011;26259;50.214;18.620;2022-08-21T12:17:20;4.60;;;1.73;;
22677;SDS011;26259;50.214;18.620;2022-08-21T12:19:58;3.13;;;2.00;;
22677;SDS011;26259;50.214;18.620;2022-08-21T12:22:35;2.10;;;1.90;;
22677;SDS011;26259;50.214;18.620;2022-08-21T12:25:10;1.73;;;1.63;;
22677;SDS011;26259;50.214;18.620;2022-08-21T12:27:47;2.03;;;1.90;;
22677;SDS011;26259;50.214;18.620;2022-08-21T12:30:21;1.87;;;1.77;;
22677;SDS011;26259;50.214;18.620;2022-08-21T12:33:02;1.83;;;1.73;;
22677;SDS011;26259;50.214;18.620;2022-08-21T12:35:36;2.40;;;1.60;;
22677;SDS011;26259;50.214;18.620;2022-08-21T12:38:47;2.00;;;1.90;;
22677;SDS011;26259;50.214;18.620;2022-08-21T12:40:56;1.87;;;1.77;;
22677;SDS011;26259;50.214;18.620;2022-08-21T12:45:54;1.83;;;1.73;;
22677;SDS011;26259;50.214;18.620;2022-08-21T12:48:25;1.53;;;1.53;;
22677;SDS011;26259;50.214;18.620;2022-08-21T12:50:55;3.93;;;2.30;;
22677;SDS011;26259;50.214;18.620;2022-08-21T12:56:08;3.70;;;1.97;;
22677;SDS011;26259;50.214;18.620;2022-08-21T12:58:36;2.90;;;2.07;;
22677;SDS011;26259;50.214;18.620;2022-08-21T13:01:22;6.30;;;2.00;;
22677;SDS011;26259;50.214;18.620;2022-08-21T13:03:55;2.70;;;2.20;;
22677;SDS011;26259;50.214;18.620;2022-08-21T13:06:24;2.47;;;2.27;;
22677;SDS011;26259;50.214;18.620;2022-08-21T13:08:54;2.50;;;2.30;;
22677;SDS011;26259;50.214;18.620;2022-08-21T13:11:23;5.00;;;2.30;;
22677;SDS011;26259;50.214;18.620;2022-08-21T13:13:51;2.13;;;1.97;;
22677;SDS011;26259;50.214;18.620;2022-08-21T13:16:19;2.70;;;2.50;;
22677;SDS011;26259;50.214;18.620;2022-08-21T13:19:00;2.53;;;2.37;;
22677;SDS011;26259;50.214;18.620;2022-08-21T13:21:38;2.90;;;2.70;;
22677;SDS011;26259;50.214;18.620;2022-08-21T13:24:12;3.83;;;3.40;;
22677;SDS011;26259;50.214;18.620;2022-08-21T13:26:44;3.47;;;3.17;;
22677;SDS011;26259;50.214;18.620;2022-08-21T13:29:12;3.30;;;3.00;;
22677;SDS011;26259;50.214;18.620;2022-08-21T13:31:40;3.70;;;3.40;;
22677;SDS011;26259;50.214;18.620;2022-08-21T13:34:34;3.90;;;3.33;;
22677;SDS011;26259;50.214;18.620;2022-08-21T13:37:03;3.57;;;3.27;;
22677;SDS011;26259;50.214;18.620;2022-08-21T13:39:30;3.73;;;3.33;;
22677;SDS011;26259;50.214;18.620;2022-08-21T13:41:58;5.50;;;4.00;;
22677;SDS011;26259;50.214;18.620;2022-08-21T13:47:02;10.93;;;7.53;;
22677;SDS011;26259;50.214;18.620;2022-08-21T13:51:59;12.10;;;9.70;;
22677;SDS011;26259;50.214;18.620;2022-08-21T13:54:27;11.67;;;9.63;;
22677;SDS011;26259;50.214;18.620;2022-08-21T13:56:58;14.47;;;11.00;;
22677;SDS011;26259;50.214;18.620;2022-08-21T13:59:35;12.47;;;10.17;;
22677;SDS011;26259;50.214;18.620;2022-08-21T14:02:15;14.27;;;12.20;;
22677;SDS011;26259;50.214;18.620;2022-08-21T14:05:00;19.10;;;12.37;;
22677;SDS011;26259;50.214;18.620;2022-08-21T14:10:06;18.13;;;12.73;;
22677;SDS011;26259;50.214;18.620;2022-08-21T14:12:38;18.20;;;14.30;;
22677;SDS011;26259;50.214;18.620;2022-08-21T14:15:08;16.57;;;13.10;;
22677;SDS011;26259;50.214;18.620;2022-08-21T14:17:37;17.73;;;14.13;;
22677;SDS011;26259;50.214;18.620;2022-08-21T14:20:07;17.33;;;14.17;;
22677;SDS011;26259;50.214;18.620;2022-08-21T14:22:43;17.97;;;14.17;;
22677;SDS011;26259;50.214;18.620;2022-08-21T14:25:12;16.13;;;12.90;;
22677;SDS011;26259;50.214;18.620;2022-08-21T14:30:29;16.40;;;11.53;;
22677;SDS011;26259;50.214;18.620;2022-08-21T14:32:57;16.77;;;12.47;;
22677;SDS011;26259;50.214;18.620;2022-08-21T14:35:23;15.07;;;11.07;;
22677;SDS011;26259;50.214;18.620;2022-08-21T14:37:48;14.93;;;10.90;;
22677;SDS011;26259;50.214;18.620;2022-08-21T14:40:15;17.07;;;10.60;;
22677;SDS011;26259;50.214;18.620;2022-08-21T14:42:42;11.43;;;9.10;;
22677;SDS011;26259;50.214;18.620;2022-08-21T14:45:19;12.03;;;8.90;;
22677;SDS011;26259;50.214;18.620;2022-08-21T14:47:51;11.33;;;9.23;;
22677;SDS011;26259;50.214;18.620;2022-08-21T14:50:17;12.13;;;10.03;;
22677;SDS011;26259;50.214;18.620;2022-08-21T14:52:43;16.67;;;9.30;;
22677;SDS011;26259;50.214;18.620;2022-08-21T14:55:11;11.10;;;8.70;;
22677;SDS011;26259;50.214;18.620;2022-08-21T14:57:41;10.10;;;8.33;;
22677;SDS011;26259;50.214;18.620;2022-08-21T15:00:09;10.40;;;7.77;;
22677;SDS011;26259;50.214;18.620;2022-08-21T15:02:36;9.23;;;6.77;;
22677;SDS011;26259;50.214;18.620;2022-08-21T15:05:02;7.93;;;6.87;;
22677;SDS011;26259;50.214;18.620;2022-08-21T15:07:28;10.00;;;6.63;;
22677;SDS011;26259;50.214;18.620;2022-08-21T15:09:53;8.73;;;6.03;;
22677;SDS011;26259;50.214;18.620;2022-08-21T15:12:19;6.47;;;5.60;;
22677;SDS011;26259;50.214;18.620;2022-08-21T15:14:44;8.97;;;5.93;;
22677;SDS011;26259;50.214;18.620;2022-08-21T15:17:10;7.03;;;5.30;;
22677;SDS011;26259;50.214;18.620;2022-08-21T15:19:37;5.93;;;4.83;;
22677;SDS011;26259;50.214;18.620;2022-08-21T15:22:03;6.60;;;4.83;;
22677;SDS011;26259;50.214;18.620;2022-08-21T15:24:29;7.17;;;5.40;;
22677;SDS011;26259;50.214;18.620;2022-08-21T15:26:55;6.23;;;4.80;;
22677;SDS011;26259;50.214;18.620;2022-08-21T15:29:21;4.97;;;4.53;;
22677;SDS011;26259;50.214;18.620;2022-08-21T15:31:52;5.93;;;4.50;;
22677;SDS011;26259;50.214;18.620;2022-08-21T15:34:20;5.27;;;4.73;;
22677;SDS011;26259;50.214;18.620;2022-08-21T15:36:45;5.80;;;5.20;;
22677;SDS011;26259;50.214;18.620;2022-08-21T15:39:11;5.13;;;4.60;;
22677;SDS011;26259;50.214;18.620;2022-08-21T15:44:12;5.27;;;4.10;;
22677;SDS011;26259;50.214;18.620;2022-08-21T15:46:39;6.57;;;4.40;;
22677;SDS011;26259;50.214;18.620;2022-08-21T15:49:05;4.07;;;3.67;;
22677;SDS011;26259;50.214;18.620;2022-08-21T15:51:31;7.33;;;4.00;;
22677;SDS011;26259;50.214;18.620;2022-08-21T15:53:57;6.40;;;4.50;;
22677;SDS011;26259;50.214;18.620;2022-08-21T15:59:04;5.40;;;4.10;;
22677;SDS011;26259;50.214;18.620;2022-08-21T16:01:30;4.40;;;4.00;;
22677;SDS011;26259;50.214;18.620;2022-08-21T16:09:02;7.30;;;4.77;;
22677;SDS011;26259;50.214;18.620;2022-08-21T16:11:28;6.63;;;4.40;;
22677;SDS011;26259;50.214;18.620;2022-08-21T16:13:54;7.73;;;4.77;;
22677;SDS011;26259;50.214;18.620;2022-08-21T16:16:21;6.93;;;4.10;;
22677;SDS011;26259;50.214;18.620;2022-08-21T16:18:49;8.67;;;3.97;;
22677;SDS011;26259;50.214;18.620;2022-08-21T16:21:17;4.90;;;4.50;;
22677;SDS011;26259;50.214;18.620;2022-08-21T16:26:11;5.33;;;4.70;;
22677;SDS011;26259;50.214;18.620;2022-08-21T16:28:38;8.13;;;5.00;;
22677;SDS011;26259;50.214;18.620;2022-08-21T16:31:07;5.83;;;4.77;;
22677;SDS011;26259;50.214;18.620;2022-08-21T16:33:43;10.23;;;4.80;;
22677;SDS011;26259;50.214;18.620;2022-08-21T16:36:13;9.40;;;5.57;;
22677;SDS011;26259;50.214;18.620;2022-08-21T16:38:39;10.00;;;5.47;;
22677;SDS011;26259;50.214;18.620;2022-08-21T16:41:17;9.60;;;6.60;;
22677;SDS011;26259;50.214;18.620;2022-08-21T16:43:40;9.50;;;5.60;;
22677;SDS011;26259;50.214;18.620;2022-08-21T16:46:08;10.37;;;7.73;;
22677;SDS011;26259;50.214;18.620;2022-08-21T16:48:36;9.80;;;7.43;;
22677;SDS011;26259;50.214;18.620;2022-08-21T16:51:02;12.83;;;8.23;;
22677;SDS011;26259;50.214;18.620;2022-08-21T16:53:29;9.93;;;7.13;;
22677;SDS011;26259;50.214;18.620;2022-08-21T16:55:54;10.70;;;6.83;;
22677;SDS011;26259;50.214;18.620;2022-08-21T16:58:25;10.60;;;7.00;;
22677;SDS011;26259;50.214;18.620;2022-08-21T17:00:55;9.33;;;6.73;;
22677;SDS011;26259;50.214;18.620;2022-08-21T17:03:25;9.43;;;6.10;;
22677;SDS011;26259;50.214;18.620;2022-08-21T17:06:00;10.70;;;6.57;;
22677;SDS011;26259;50.214;18.620;2022-08-21T17:08:26;9.77;;;6.33;;
22677;SDS011;26259;50.214;18.620;2022-08-21T17:10:52;7.17;;;6.13;;
22677;SDS011;26259;50.214;18.620;2022-08-21T17:13:18;11.57;;;6.53;;
22677;SDS011;26259;50.214;18.620;2022-08-21T17:15:44;8.30;;;6.00;;
22677;SDS011;26259;50.214;18.620;2022-08-21T17:18:12;6.83;;;5.57;;
22677;SDS011;26259;50.214;18.620;2022-08-21T17:20:40;7.43;;;5.97;;
22677;SDS011;26259;50.214;18.620;2022-08-21T17:23:06;7.77;;;6.50;;
22677;SDS011;26259;50.214;18.620;2022-08-21T17:25:33;8.97;;;6.83;;
22677;SDS011;26259;50.214;18.620;2022-08-21T17:28:03;11.93;;;7.63;;
22677;SDS011;26259;50.214;18.620;2022-08-21T17:30:30;11.90;;;6.93;;
22677;SDS011;26259;50.214;18.620;2022-08-21T17:32:56;20.97;;;7.27;;
22677;SDS011;26259;50.214;18.620;2022-08-21T17:35:24;8.83;;;6.77;;
22677;SDS011;26259;50.214;18.620;2022-08-21T17:37:50;12.83;;;6.67;;
22677;SDS011;26259;50.214;18.620;2022-08-21T17:40:17;12.80;;;5.77;;
22677;SDS011;26259;50.214;18.620;2022-08-21T17:42:44;8.90;;;6.03;;
22677;SDS011;26259;50.214;18.620;2022-08-21T17:45:13;10.13;;;6.03;;
22677;SDS011;26259;50.214;18.620;2022-08-21T17:47:40;6.60;;;5.33;;
22677;SDS011;26259;50.214;18.620;2022-08-21T17:50:06;9.10;;;4.67;;
22677;SDS011;26259;50.214;18.620;2022-08-21T17:52:33;4.07;;;3.67;;
22677;SDS011;26259;50.214;18.620;2022-08-21T18:02:46;4.53;;;4.13;;
22677;SDS011;26259;50.214;18.620;2022-08-21T18:05:15;6.07;;;3.93;;
22677;SDS011;26259;50.214;18.620;2022-08-21T18:07:41;4.53;;;3.30;;
22677;SDS011;26259;50.214;18.620;2022-08-21T18:10:08;4.93;;;3.37;;
22677;SDS011;26259;50.214;18.620;2022-08-21T18:12:36;5.47;;;3.00;;
22677;SDS011;26259;50.214;18.620;2022-08-21T18:15:06;3.70;;;3.30;;
22677;SDS011;26259;50.214;18.620;2022-08-21T18:17:33;4.83;;;3.67;;
22677;SDS011;26259;50.214;18.620;2022-08-21T18:19:59;5.30;;;3.97;;
22677;SDS011;26259;50.214;18.620;2022-08-21T18:22:26;4.70;;;4.20;;
22677;SDS011;26259;50.214;18.620;2022-08-21T18:24:52;6.00;;;5.40;;
22677;SDS011;26259;50.214;18.620;2022-08-21T18:27:17;5.90;;;5.40;;
22677;SDS011;26259;50.214;18.620;2022-08-21T18:29:44;7.70;;;6.00;;
22677;SDS011;26259;50.214;18.620;2022-08-21T18:32:10;6.57;;;5.97;;
22677;SDS011;26259;50.214;18.620;2022-08-21T18:34:37;7.60;;;6.80;;
22677;SDS011;26259;50.214;18.620;2022-08-21T18:37:05;8.47;;;7.40;;
22677;SDS011;26259;50.214;18.620;2022-08-21T18:39:32;9.10;;;8.20;;
22677;SDS011;26259;50.214;18.620;2022-08-21T18:41:58;9.00;;;8.10;;
22677;SDS011;26259;50.214;18.620;2022-08-21T18:44:26;9.90;;;8.90;;
22677;SDS011;26259;50.214;18.620;2022-08-21T18:46:56;10.47;;;9.47;;